createdAt,value
2022-10-06T00:04:55.707Z,4.19
2022-10-06T00:15:03.315Z,4.27
2022-10-06T00:25:10.853Z,4.17
2022-10-06T00:35:18.449Z,3.63
2022-10-06T00:45:25.983Z,4.11
2022-10-06T00:55:33.511Z,4.03
2022-10-06T01:05:41.119Z,3.72
2022-10-06T01:15:48.759Z,3.56
2022-10-06T01:25:56.178Z,3.65
2022-10-06T01:36:03.670Z,3.42
2022-10-06T01:46:12.070Z,4.62
2022-10-06T01:56:20.471Z,4.83
2022-10-06T02:06:29.019Z,5.19
2022-10-06T02:16:36.897Z,4.9
2022-10-06T02:26:44.392Z,3.81
2022-10-06T02:36:51.979Z,3.59
2022-10-06T02:46:59.904Z,3.5
2022-10-06T02:57:07.355Z,3.73
2022-10-06T03:07:14.887Z,3.79
2022-10-06T03:17:22.437Z,4.76
2022-10-06T03:27:30.082Z,5.37
2022-10-06T03:37:37.586Z,5.84
2022-10-06T03:47:45.170Z,6.6
2022-10-06T03:57:52.534Z,5.7
2022-10-06T04:08:00.247Z,5.91
2022-10-06T04:18:07.790Z,5.74
2022-10-06T04:28:15.396Z,6.15
2022-10-06T04:38:22.947Z,7.32
2022-10-06T04:48:36.643Z,6.75
2022-10-06T04:58:34.299Z,5.89
2022-10-06T05:08:43.088Z,5.44
2022-10-06T05:18:50.899Z,6.98
2022-10-06T05:28:59.531Z,7.92
2022-10-06T05:39:07.100Z,8.89
2022-10-06T05:49:14.798Z,8.46
2022-10-06T05:59:22.365Z,9.5
2022-10-06T06:09:30.033Z,7.62
2022-10-06T06:19:37.282Z,7.93
2022-10-06T06:29:44.727Z,6.23
2022-10-06T06:39:52.414Z,5.12
2022-10-06T06:50:00.290Z,5.75
2022-10-06T07:00:07.863Z,5.7
2022-10-06T07:10:15.818Z,6.14
2022-10-06T07:20:23.681Z,5.47
2022-10-06T07:30:33.434Z,5.65
2022-10-06T07:40:42.703Z,6.68
2022-10-06T07:50:46.626Z,7.25
2022-10-06T08:00:54.346Z,4.8
2022-10-06T08:11:01.854Z,5.98
2022-10-06T08:21:08.574Z,5.45
2022-10-06T08:31:17.613Z,4.58
2022-10-06T08:41:25.128Z,4.63
2022-10-06T08:51:32.787Z,6.4
2022-10-06T09:01:40.372Z,3.75
2022-10-06T09:11:47.934Z,4.98
2022-10-06T09:21:55.642Z,4.16
2022-10-06T09:32:03.178Z,3.91
2022-10-06T09:42:11.640Z,3.41
2022-10-06T09:52:19.387Z,4.19
2022-10-06T10:02:27.130Z,3.82
2022-10-06T10:12:34.740Z,2.56
2022-10-06T10:22:42.378Z,2.53
2022-10-06T10:32:50.041Z,2.7
2022-10-06T10:42:58.672Z,3.26
2022-10-06T10:53:06.338Z,2.77
2022-10-06T11:13:19.645Z,2.64
2022-10-06T11:23:17.193Z,2.83
2022-10-06T11:33:25.388Z,2.56
2022-10-06T11:43:33.035Z,2.88
2022-10-06T11:53:41.567Z,3.63
2022-10-06T12:03:49.202Z,3.95
2022-10-06T12:24:01.666Z,4.41
2022-10-06T12:34:09.381Z,3.84
2022-10-06T12:44:16.918Z,4.31
2022-10-06T13:04:33.469Z,4.28
2022-10-06T13:14:31.680Z,4.45
2022-10-06T13:24:46.863Z,4.23
2022-10-06T13:34:43.875Z,3.4
2022-10-06T13:44:59.163Z,3.5
2022-10-06T13:54:57.853Z,3.37
2022-10-06T14:05:05.908Z,3.4
2022-10-06T14:15:14.615Z,3.14
2022-10-06T14:25:22.452Z,2.7
2022-10-06T14:35:30.078Z,2.64
2022-10-06T14:45:37.571Z,2.62
2022-10-06T14:55:45.386Z,2.59
2022-10-06T15:05:53.002Z,2.69
2022-10-06T15:16:01.585Z,2.69
2022-10-06T15:26:10.587Z,3.06
2022-10-06T15:36:19.118Z,2.26
2022-10-06T15:46:26.743Z,2.48
2022-10-06T15:56:34.750Z,2.44
2022-10-06T16:06:43.128Z,2.01
2022-10-06T16:16:49.950Z,1.97
2022-10-06T16:26:57.736Z,2.29
2022-10-06T16:37:05.245Z,3.23
2022-10-06T16:47:15.251Z,2.65
2022-10-06T16:57:21.860Z,2.94
2022-10-06T17:07:31.907Z,2.42
2022-10-06T17:17:31.757Z,2.81
2022-10-06T17:27:42.114Z,2.51
2022-10-06T17:37:47.077Z,3.17
2022-10-06T17:47:57.750Z,3.6
2022-10-06T17:57:56.425Z,2.89
2022-10-06T18:08:07.057Z,3.21
2022-10-06T18:18:09.685Z,3.11
2022-10-06T18:28:17.771Z,3.29
2022-10-06T18:38:12.986Z,2.85
2022-10-06T18:48:12.929Z,2.69
2022-10-06T18:58:20.953Z,2.68
2022-10-06T19:08:31.419Z,2.89
2022-10-06T19:18:29.158Z,3.9
2022-10-06T19:28:36.781Z,3
2022-10-06T19:38:44.292Z,3.76
2022-10-06T19:48:52.318Z,3.14
2022-10-06T19:59:00.327Z,3.5
2022-10-06T20:09:08.336Z,4.67
2022-10-06T20:19:15.937Z,3.37
2022-10-06T20:29:25.263Z,3.19
2022-10-06T20:39:32.803Z,2.71
2022-10-06T20:49:40.280Z,3.55
2022-10-06T20:59:49.711Z,5.76
2022-10-06T21:09:56.835Z,5.24
2022-10-06T21:20:04.763Z,3.53
2022-10-06T21:30:12.831Z,3.7
2022-10-06T21:40:20.747Z,3.34
2022-10-06T21:50:28.603Z,3.67
2022-10-06T22:00:37.675Z,3.73
2022-10-06T22:10:45.569Z,3.87
2022-10-06T22:20:53.432Z,3.6
2022-10-06T22:31:01.440Z,2.93
2022-10-06T22:41:09.377Z,3.24
2022-10-06T22:51:17.267Z,3.26
2022-10-06T23:01:25.127Z,2.75
2022-10-06T23:11:32.851Z,3.19
2022-10-06T23:21:40.679Z,3.8
2022-10-06T23:31:48.566Z,3.91
2022-10-06T23:41:56.394Z,3.37
2022-10-06T23:52:04.290Z,3.53
